»·PEaware :: N654SW KSNA-KPSP

N654SW :: KSNA-KPSP

FLIGHT INFORMATION

Flight Status: Arrived
Operator: Privately registered:
United States
More flights under this callsign
Pilot: Sergei F. (8485)
Aircraft: BOEING 737-800
(B738)
More flights by this aircraft type
Origin: KSNA John Wayne-Orange Co
United States
Destination: KPSP Palm Springs Intl
United States
More flights between these airports :: More routes between these airports
Route: MUSEL8 SLI V64 TRM
File this flight plan on PilotEdge
Remarks:
Altitude:
(Current/Filed)
15,000ft
Speed:
(Current/Filed)
400kts
Departed: 02-Jan-21 09:44 PM
Arrived: 02-Jan-21 10:11 PM
Distance/Time
Traveled:
68nm/0:27
Distance/Time
To Go:
Arrived

Flight Plot

Page will automatically refresh every two minutes.

Flight plan parsing failed; only flown route is shown


Map Options




Map Legend


Flown Route
Filed Route
Departure Airport
Arrival Airport
Navaid (VOR, NDB)
Fix

Horizontal Profiles

Position Reports

Time Latitude Longitude Heading Altitude Ground
Speed
02-Jan-21 21:13 33.674245 -117.865587 27 66ft 0kts
02-Jan-21 21:17 33.674245 -117.865587 27 66ft 0kts
02-Jan-21 21:18 33.674245 -117.865587 27 66ft 0kts
02-Jan-21 21:19 33.674245 -117.865587 27 66ft 0kts
02-Jan-21 21:20 33.674244 -117.865587 27 66ft 0kts
02-Jan-21 21:21 33.674244 -117.865587 27 66ft 0kts
02-Jan-21 21:22 33.674244 -117.865587 27 66ft 0kts
02-Jan-21 21:23 33.674244 -117.865587 27 66ft 0kts
02-Jan-21 21:24 33.674244 -117.865587 27 66ft 0kts
02-Jan-21 21:25 33.674244 -117.865587 27 66ft 0kts
02-Jan-21 21:26 33.674244 -117.865587 27 66ft 0kts
02-Jan-21 21:27 33.674244 -117.865587 27 66ft 0kts
02-Jan-21 21:28 33.674244 -117.865587 27 66ft 0kts
02-Jan-21 21:29 33.674244 -117.865587 27 66ft 0kts
02-Jan-21 21:30 33.674244 -117.865587 27 66ft 0kts
02-Jan-21 21:31 33.674244 -117.865587 27 66ft 0kts
02-Jan-21 21:32 33.674244 -117.865587 27 66ft 0kts
02-Jan-21 21:33 33.674244 -117.865587 27 66ft 0kts
02-Jan-21 21:34 33.674244 -117.865587 27 66ft 0kts
02-Jan-21 21:35 33.674245 -117.865587 27 66ft 0kts
02-Jan-21 21:36 33.674245 -117.865587 27 66ft 0kts
02-Jan-21 21:37 33.674245 -117.865587 27 66ft 0kts
02-Jan-21 21:38 33.674456 -117.865532 0 66ft 3kts
02-Jan-21 21:39 33.675899 -117.865345 28 66ft 10kts
02-Jan-21 21:40 33.679282 -117.863194 27 66ft 13kts
02-Jan-21 21:41 33.680732 -117.863259 299 66ft 5kts
02-Jan-21 21:42 33.681456 -117.865077 261 66ft 5kts
02-Jan-21 21:43 33.665230 -117.875530 208 313ft 184kts
02-Jan-21 21:44 33.611899 -117.888811 192 2978ft 244kts
02-Jan-21 21:45 33.544223 -117.900893 188 6649ft 264kts
02-Jan-21 21:46 33.497500 -117.958406 261 8484ft 266kts
02-Jan-21 21:47 33.501234 -118.044542 317 11151ft 297kts
02-Jan-21 21:48 33.583358 -118.067419 359 14206ft 327kts
02-Jan-21 21:49 33.680863 -118.060018 9 14967ft 365kts
02-Jan-21 21:50 33.743296 -117.963888 63 14977ft 389kts
02-Jan-21 21:51 33.764150 -117.839111 88 12990ft 380kts
02-Jan-21 21:52 33.756925 -117.710136 92 12985ft 387kts
02-Jan-21 21:53 33.747256 -117.581182 92 12989ft 387kts
02-Jan-21 21:55 33.737141 -117.452182 92 12981ft 387kts
02-Jan-21 21:56 33.726922 -117.323645 93 12978ft 386kts
02-Jan-21 21:57 33.716543 -117.194478 93 12981ft 387kts
02-Jan-21 21:58 33.705991 -117.065662 93 12981ft 387kts
02-Jan-21 21:59 33.695389 -116.936876 93 12981ft 388kts
02-Jan-21 22:00 33.684491 -116.807642 94 12970ft 377kts
02-Jan-21 22:01 33.674268 -116.687447 93 11270ft 361kts
02-Jan-21 22:02 33.664479 -116.574152 93 9961ft 315kts
02-Jan-21 22:03 33.656193 -116.478470 93 8792ft 264kts
02-Jan-21 22:04 33.674844 -116.403778 59 7433ft 224kts
02-Jan-21 22:05 33.704668 -116.343811 49 6125ft 194kts
02-Jan-21 22:06 33.733910 -116.365467 265 4424ft 186kts
02-Jan-21 22:07 33.743485 -116.423000 298 3138ft 170kts
02-Jan-21 22:08 33.774321 -116.460343 330 1669ft 153kts
02-Jan-21 22:09 33.807778 -116.488139 324 802ft 147kts
02-Jan-21 22:10 33.835404 -116.512740 323 454ft 47kts
02-Jan-21 22:11 33.835592 -116.514923 176 461ft 10kts
02-Jan-21 22:12 33.832593 -116.512398 144 448ft 15kts
02-Jan-21 22:12 33.829537 -116.509687 144 437ft 9kts
02-Jan-21 22:13 33.826423 -116.506886 157 424ft 9kts
02-Jan-21 22:15 33.824315 -116.505819 143 419ft 11kts
02-Jan-21 22:16 33.822431 -116.505255 231 415ft 4kts
02-Jan-21 22:16 33.821942 -116.506484 228 416ft 4kts
02-Jan-21 22:17 33.821733 -116.506747 226 416ft 0kts
02-Jan-21 22:18 33.821733 -116.506747 226 416ft 0kts
02-Jan-21 22:19 33.821733 -116.506747 226 416ft 0kts
02-Jan-21 22:20 33.821733 -116.506747 226 416ft 0kts
02-Jan-21 22:21 33.821733 -116.506747 226 416ft 0kts
02-Jan-21 22:22 33.821733 -116.506747 226 416ft 0kts

Navigation Log

Ident Type
Flight plan parsing failed, navigation log unavailable